createdAt,value
2023-10-13T00:02:06.434Z,5.10
2023-10-13T00:04:36.917Z,7.53
2023-10-13T00:07:05.708Z,15.57
2023-10-13T00:09:39.165Z,11.70
2023-10-13T00:12:11.374Z,9.80
2023-10-13T00:14:38.755Z,7.20
2023-10-13T00:17:17.371Z,13.77
2023-10-13T00:19:48.085Z,11.53
2023-10-13T00:22:21.203Z,8.63
2023-10-13T00:24:49.152Z,5.63
2023-10-13T00:27:33.216Z,10.93
2023-10-13T00:30:39.562Z,7.30
2023-10-13T00:33:06.590Z,12.60
2023-10-13T00:35:43.420Z,7.80
2023-10-13T00:38:18.004Z,6.90
2023-10-13T00:40:52.869Z,10.03
2023-10-13T00:43:21.989Z,6.60
2023-10-13T00:45:58.296Z,6.57
2023-10-13T00:48:35.411Z,6.90
2023-10-13T00:51:08.148Z,9.27
2023-10-13T00:53:41.478Z,8.00
2023-10-13T00:56:10.421Z,4.80
2023-10-13T00:58:41.062Z,4.90
2023-10-13T01:01:20.089Z,4.27
2023-10-13T01:03:50.461Z,5.57
2023-10-13T01:06:20.997Z,6.47
2023-10-13T01:09:19.450Z,9.10
2023-10-13T01:11:55.311Z,10.03
2023-10-13T01:14:24.832Z,7.23
2023-10-13T01:16:56.489Z,4.30
2023-10-13T01:19:28.537Z,5.17
2023-10-13T01:22:03.072Z,4.43
2023-10-13T01:24:37.236Z,3.97
2023-10-13T01:27:24.096Z,7.03
2023-10-13T01:29:53.787Z,5.03
2023-10-13T01:32:23.411Z,6.00
2023-10-13T01:34:56.162Z,12.23
2023-10-13T01:37:24.003Z,6.40
2023-10-13T01:39:52.022Z,10.80
2023-10-13T01:42:23.194Z,7.60
2023-10-13T01:44:50.870Z,10.87
2023-10-13T01:47:18.671Z,6.60
2023-10-13T01:49:49.217Z,7.53
2023-10-13T01:52:17.446Z,8.80
2023-10-13T01:54:50.347Z,8.90
2023-10-13T01:57:23.767Z,8.73
2023-10-13T01:59:51.234Z,8.70
2023-10-13T02:02:30.196Z,8.80
2023-10-13T02:05:01.968Z,11.50
2023-10-13T02:07:32.267Z,11.00
2023-10-13T02:09:59.956Z,10.63
2023-10-13T02:12:36.970Z,13.53
2023-10-13T02:15:06.221Z,9.53
2023-10-13T02:17:41.585Z,13.00
2023-10-13T02:20:15.349Z,17.47
2023-10-13T02:22:52.659Z,11.90
2023-10-13T02:25:44.141Z,14.23
2023-10-13T02:28:15.273Z,20.57
2023-10-13T02:30:49.931Z,15.60
2023-10-13T02:33:23.532Z,21.40
2023-10-13T02:35:56.725Z,13.23
2023-10-13T02:38:50.655Z,16.27
2023-10-13T02:41:27.377Z,21.43
2023-10-13T02:43:55.962Z,14.10
2023-10-13T02:46:24.476Z,15.10
2023-10-13T02:48:54.883Z,15.67
2023-10-13T02:51:26.859Z,25.83
2023-10-13T02:53:54.130Z,11.00
2023-10-13T02:56:24.511Z,13.73
2023-10-13T02:59:06.703Z,12.70
2023-10-13T03:01:37.632Z,14.90
2023-10-13T03:04:09.900Z,18.40
2023-10-13T03:06:41.415Z,16.20
2023-10-13T03:09:30.089Z,12.27
2023-10-13T03:11:57.174Z,16.87
2023-10-13T03:14:25.903Z,16.83
2023-10-13T03:17:10.469Z,19.70
2023-10-13T03:19:40.369Z,13.73
2023-10-13T03:22:12.717Z,21.33
2023-10-13T03:24:46.818Z,18.10
2023-10-13T03:27:23.965Z,14.97
2023-10-13T03:29:56.047Z,20.07
2023-10-13T03:32:27.692Z,30.83
2023-10-13T03:35:01.655Z,16.63
2023-10-13T03:37:39.482Z,26.53
2023-10-13T03:40:23.979Z,20.53
2023-10-13T03:43:13.410Z,19.10
2023-10-13T03:45:53.298Z,21.50
2023-10-13T03:48:27.301Z,20.50
2023-10-13T03:51:09.252Z,39.63
2023-10-13T03:53:51.375Z,26.80
2023-10-13T03:56:31.152Z,23.07
2023-10-13T03:59:26.678Z,27.63
2023-10-13T04:01:53.742Z,17.70
2023-10-13T04:04:59.914Z,21.03
2023-10-13T04:07:27.040Z,22.13
2023-10-13T04:10:11.734Z,23.60
2023-10-13T04:12:57.378Z,26.50
2023-10-13T04:15:24.844Z,31.93
2023-10-13T04:17:52.224Z,19.53
2023-10-13T04:20:30.627Z,24.30
2023-10-13T04:23:00.166Z,24.37
2023-10-13T04:25:44.685Z,21.37
2023-10-13T04:28:35.242Z,26.50
2023-10-13T04:31:13.305Z,26.50
2023-10-13T04:34:03.476Z,24.63
2023-10-13T04:36:30.460Z,24.13
2023-10-13T04:39:01.936Z,27.33
2023-10-13T04:41:43.029Z,19.43
2023-10-13T04:44:33.280Z,32.33
2023-10-13T04:47:01.496Z,23.07
2023-10-13T04:49:36.706Z,23.17
2023-10-13T04:52:12.376Z,28.43
2023-10-13T04:54:46.869Z,31.20
2023-10-13T04:57:36.158Z,26.27
2023-10-13T05:00:11.879Z,23.30
2023-10-13T05:02:40.778Z,24.27
2023-10-13T05:05:19.396Z,29.13
2023-10-13T05:08:05.478Z,28.17
2023-10-13T05:10:53.987Z,26.63
2023-10-13T05:13:39.680Z,22.20
2023-10-13T05:16:25.757Z,30.97
2023-10-13T05:19:11.581Z,26.47
2023-10-13T05:21:57.930Z,30.03
2023-10-13T05:24:43.646Z,28.10
2023-10-13T05:27:29.367Z,19.80
2023-10-13T05:30:14.967Z,27.43
2023-10-13T05:33:00.393Z,26.83
2023-10-13T05:35:46.336Z,19.47
2023-10-13T05:38:31.898Z,23.73
2023-10-13T05:41:25.481Z,28.73
2023-10-13T05:44:11.887Z,31.10
2023-10-13T05:46:39.312Z,21.70
2023-10-13T05:49:18.052Z,22.40
2023-10-13T05:51:59.252Z,28.27
2023-10-13T05:54:45.439Z,22.87
2023-10-13T05:57:41.058Z,33.77
2023-10-13T06:00:27.176Z,20.03
2023-10-13T06:03:12.823Z,26.53
2023-10-13T06:05:58.571Z,31.27
2023-10-13T06:08:44.089Z,23.43
2023-10-13T06:11:29.783Z,25.30
2023-10-13T06:14:15.355Z,31.33
2023-10-13T06:17:00.967Z,26.77
2023-10-13T06:19:47.008Z,19.00
2023-10-13T06:22:32.527Z,19.97
2023-10-13T06:25:18.109Z,16.70
2023-10-13T06:28:06.268Z,17.60
2023-10-13T06:30:34.394Z,25.57
2023-10-13T06:33:02.562Z,27.47
2023-10-13T06:35:30.255Z,13.40
2023-10-13T06:38:01.994Z,12.50
2023-10-13T06:40:35.128Z,18.63
2023-10-13T06:43:18.034Z,11.23
2023-10-13T06:45:52.035Z,22.40
2023-10-13T06:48:21.146Z,12.60
2023-10-13T06:50:53.350Z,13.83
2023-10-13T06:53:21.232Z,12.73
2023-10-13T06:55:49.015Z,17.70
2023-10-13T06:58:18.816Z,13.20
2023-10-13T07:00:56.176Z,10.27
2023-10-13T07:03:26.736Z,12.47
2023-10-13T07:05:56.232Z,34.07
2023-10-13T07:08:24.921Z,11.80
2023-10-13T07:11:19.130Z,8.60
2023-10-13T07:13:52.408Z,9.40
2023-10-13T07:16:29.974Z,14.90
2023-10-13T07:19:05.474Z,25.67
2023-10-13T07:21:35.015Z,8.27
2023-10-13T07:24:09.112Z,8.23
2023-10-13T07:26:47.977Z,9.80
2023-10-13T07:29:15.841Z,17.60
2023-10-13T07:31:53.378Z,10.83
2023-10-13T07:34:43.298Z,11.40
2023-10-13T07:37:27.379Z,9.80
2023-10-13T07:40:30.705Z,8.70
2023-10-13T07:43:24.741Z,11.57
2023-10-13T07:47:00.593Z,16.20
2023-10-13T07:50:11.514Z,18.67
2023-10-13T07:53:45.832Z,10.60
2023-10-13T07:56:53.606Z,11.10
2023-10-13T07:59:32.046Z,17.87
2023-10-13T08:02:40.320Z,10.00
2023-10-13T08:22:13.438Z,11.17
2023-10-13T08:24:00.731Z,8.87
2023-10-13T08:32:41.229Z,7.57
2023-10-13T08:36:58.802Z,6.53
2023-10-13T08:52:48.274Z,7.23
2023-10-13T09:00:31.514Z,8.00
2023-10-13T09:09:10.377Z,9.30
2023-10-13T09:31:54.182Z,10.30
2023-10-13T09:35:41.017Z,9.37
2023-10-13T10:31:05.134Z,6.43
2023-10-13T10:46:37.095Z,6.00
2023-10-13T10:54:15.782Z,10.43
2023-10-13T11:01:22.915Z,8.13
2023-10-13T11:04:30.166Z,8.57
2023-10-13T11:07:05.796Z,7.33
2023-10-13T11:09:47.959Z,11.23
2023-10-13T11:12:57.768Z,11.33
2023-10-13T11:16:03.406Z,10.07
2023-10-13T11:18:45.957Z,14.23
2023-10-13T11:21:26.449Z,7.40
2023-10-13T11:24:44.366Z,7.47
2023-10-13T11:28:44.402Z,11.10
2023-10-13T11:44:02.092Z,15.20
2023-10-13T11:55:41.076Z,6.23
2023-10-13T11:58:44.279Z,9.60
2023-10-13T12:13:18.751Z,10.13
2023-10-13T12:20:29.729Z,6.53
2023-10-13T12:23:25.051Z,7.30
2023-10-13T12:26:34.309Z,5.53
2023-10-13T12:29:34.964Z,17.03
2023-10-13T12:32:33.081Z,18.83
2023-10-13T12:38:45.018Z,7.00
2023-10-13T12:44:52.337Z,20.50
2023-10-13T12:47:55.817Z,10.27
2023-10-13T12:51:08.703Z,8.47
2023-10-13T12:53:50.163Z,8.87
2023-10-13T13:00:38.828Z,7.53
2023-10-13T13:04:01.175Z,23.20
2023-10-13T13:07:11.269Z,9.93
2023-10-13T13:09:43.957Z,13.43
2023-10-13T13:12:39.533Z,23.13
2023-10-13T13:15:21.071Z,9.33
2023-10-13T13:17:55.512Z,19.17
2023-10-13T13:20:41.388Z,17.53
2023-10-13T13:23:22.689Z,19.43
2023-10-13T13:33:32.658Z,12.90
2023-10-13T13:36:35.596Z,11.10
2023-10-13T13:39:20.037Z,11.63
2023-10-13T13:53:49.895Z,8.33
2023-10-13T14:10:19.933Z,11.37
2023-10-13T14:31:35.728Z,14.30
2023-10-13T14:34:49.668Z,5.80
2023-10-13T14:38:07.944Z,11.60
2023-10-13T14:49:15.420Z,16.17
2023-10-13T14:52:22.586Z,11.03
2023-10-13T14:55:15.839Z,9.70
2023-10-13T14:58:29.184Z,16.83
2023-10-13T15:01:55.420Z,10.87
2023-10-13T15:05:07.906Z,14.77
2023-10-13T15:15:20.731Z,12.20
2023-10-13T15:18:32.609Z,9.23
2023-10-13T15:21:16.621Z,22.20
2023-10-13T15:24:38.097Z,19.80
2023-10-13T15:31:24.680Z,12.03
2023-10-13T15:34:33.745Z,7.73
2023-10-13T15:37:57.512Z,8.73
2023-10-13T15:41:28.080Z,20.63
2023-10-13T15:44:56.388Z,30.27
2023-10-13T15:48:20.627Z,18.03
2023-10-13T15:51:45.428Z,19.10
2023-10-13T15:58:24.593Z,12.00
2023-10-13T16:01:02.538Z,14.03
2023-10-13T16:17:19.173Z,11.83
2023-10-13T16:20:09.432Z,11.00
2023-10-13T16:22:41.876Z,12.63
2023-10-13T16:34:27.531Z,15.00
2023-10-13T16:44:10.601Z,9.70
2023-10-13T16:51:54.435Z,15.73
2023-10-13T17:18:42.544Z,13.23
2023-10-13T17:21:40.131Z,8.63
2023-10-13T17:24:53.482Z,10.23
2023-10-13T17:29:01.761Z,21.30
2023-10-13T17:32:08.146Z,19.60
2023-10-13T17:46:20.450Z,11.63
2023-10-13T17:48:49.753Z,9.80
2023-10-13T17:51:21.969Z,5.83
2023-10-13T17:53:57.565Z,7.63
2023-10-13T17:57:37.470Z,16.07
2023-10-13T18:00:31.550Z,22.37
2023-10-13T18:07:09.925Z,10.13
2023-10-13T18:10:48.048Z,12.20
2023-10-13T18:13:20.383Z,13.43
2023-10-13T18:32:44.384Z,12.10
2023-10-13T18:47:48.109Z,19.57
2023-10-13T18:50:46.876Z,11.70
2023-10-13T19:01:06.074Z,17.47
2023-10-13T19:04:17.941Z,7.30
2023-10-13T19:14:11.995Z,15.37
2023-10-13T19:17:04.920Z,14.27
2023-10-13T19:20:04.426Z,13.70
2023-10-13T19:23:12.444Z,5.67
2023-10-13T19:26:21.099Z,9.17
2023-10-13T19:46:42.502Z,14.03
2023-10-13T19:52:54.314Z,18.10
2023-10-13T20:00:45.737Z,24.43
2023-10-13T20:17:37.159Z,18.13
2023-10-13T20:35:32.883Z,19.17
2023-10-13T21:17:33.384Z,12.00
2023-10-13T21:40:39.159Z,15.13
2023-10-13T21:44:03.139Z,12.53
2023-10-13T21:47:33.781Z,6.30
2023-10-13T21:52:17.904Z,10.37
2023-10-13T21:59:40.619Z,5.50
2023-10-13T22:04:02.536Z,14.00
2023-10-13T22:27:27.398Z,16.63
2023-10-13T23:16:24.308Z,6.20
